Time;durP1;ratioP1;P1;durP2;ratioP2;P2;SDS_P1;SDS_P2;PMS_P1;PMS_P2;Temp;Humidity;BMP_temperature;BMP_pressure;BME280_temperature;BME280_humidity;BME280_pressure;Samples;Min_cycle;Max_cycle;Signal;HPM_P1;HPM_P2
2023/03/11 00:01:36;;;;;;;0.40;0.30;;;4.70;99.90;;;;;;5039278;28;20450;-75
2023/03/11 00:04:03;;;;;;;0.43;0.40;;;4.70;99.90;;;;;;5032304;28;20919;-75
2023/03/11 00:06:30;;;;;;;0.73;0.40;;;4.70;99.90;;;;;;5041947;28;20505;-74
2023/03/11 00:08:57;;;;;;;0.50;0.30;;;4.80;99.90;;;;;;5038735;28;20537;-78
2023/03/11 00:11:24;;;;;;;0.60;0.47;;;4.90;99.90;;;;;;5045471;27;20965;-77
2023/03/11 00:13:53;;;;;;;0.53;0.40;;;4.90;99.90;;;;;;5042437;27;20514;-82
2023/03/11 00:16:20;;;;;;;0.50;0.40;;;4.90;99.90;;;;;;5053436;27;20456;-80
2023/03/11 00:18:50;;;;;;;0.47;0.40;;;4.90;99.90;;;;;;5030862;27;20528;-81
2023/03/11 00:21:19;;;;;;;0.90;0.50;;;4.90;99.90;;;;;;5030706;27;20511;-75
2023/03/11 00:23:46;;;;;;;0.50;0.30;;;4.90;99.90;;;;;;5037677;27;20526;-77
2023/03/11 00:26:13;;;;;;;0.83;0.50;;;4.80;99.90;;;;;;5103361;27;20493;-77
2023/03/11 00:28:41;;;;;;;0.40;0.33;;;4.90;99.90;;;;;;5045809;27;20442;-76
2023/03/11 00:31:12;;;;;;;0.47;0.40;;;5.00;99.90;;;;;;5037421;27;20445;-79
2023/03/11 00:33:39;;;;;;;0.40;0.37;;;5.10;99.90;;;;;;5047176;27;20465;-79
2023/03/11 00:36:07;;;;;;;3.23;0.60;;;5.20;99.90;;;;;;5052755;27;20461;-79
2023/03/11 00:38:34;;;;;;;0.50;0.40;;;5.30;99.90;;;;;;5072119;27;20800;-79
2023/03/11 00:41:01;;;;;;;0.70;0.50;;;5.10;99.90;;;;;;5031085;28;20952;-84
2023/03/11 00:43:28;;;;;;;0.47;0.40;;;5.00;99.90;;;;;;5037864;28;20476;-79
2023/03/11 00:45:55;;;;;;;0.40;0.37;;;5.10;99.90;;;;;;5022877;28;20925;-79
2023/03/11 00:48:23;;;;;;;0.70;0.33;;;5.10;99.90;;;;;;5044233;28;21200;-79
2023/03/11 00:50:50;;;;;;;1.10;0.57;;;5.00;99.90;;;;;;5036454;28;21051;-79
2023/03/11 00:53:17;;;;;;;0.40;0.40;;;5.00;99.90;;;;;;5033001;28;20493;-79
2023/03/11 00:55:44;;;;;;;0.50;0.50;;;5.00;99.90;;;;;;5030320;28;20483;-84
2023/03/11 00:58:12;;;;;;;0.60;0.50;;;5.10;99.90;;;;;;5020269;28;20458;-79
2023/03/11 01:00:39;;;;;;;1.93;0.50;;;5.00;99.90;;;;;;5023067;28;21037;-76
2023/03/11 01:03:06;;;;;;;0.40;0.40;;;4.90;99.90;;;;;;5032042;27;20594;-78
2023/03/11 01:05:35;;;;;;;3.10;0.50;;;4.70;99.90;;;;;;5023983;28;20566;-79
2023/03/11 01:08:03;;;;;;;1.47;0.30;;;4.60;99.90;;;;;;5023626;28;20461;-79
2023/03/11 01:10:34;;;;;;;0.40;0.30;;;4.50;99.90;;;;;;5024696;28;20458;-79
2023/03/11 01:13:02;;;;;;;0.50;0.40;;;4.50;99.90;;;;;;5021584;28;20454;-79
2023/03/11 01:15:31;;;;;;;1.27;0.53;;;4.40;99.90;;;;;;5024807;28;20474;-78
2023/03/11 01:17:58;;;;;;;0.97;0.50;;;4.30;99.90;;;;;;5025111;28;20597;-78
2023/03/11 01:20:25;;;;;;;0.47;0.47;;;4.30;99.90;;;;;;5024459;28;20459;-79
2023/03/11 01:22:53;;;;;;;0.70;0.60;;;4.20;99.90;;;;;;5024792;28;21102;-78
2023/03/11 01:25:22;;;;;;;0.50;0.43;;;4.10;99.90;;;;;;5024761;28;20555;-78
2023/03/11 01:27:49;;;;;;;1.43;0.90;;;4.10;99.90;;;;;;5023935;28;20458;-79
2023/03/11 01:30:18;;;;;;;2.00;0.40;;;4.00;99.90;;;;;;5024734;28;20469;-78
2023/03/11 01:32:46;;;;;;;0.50;0.50;;;3.90;99.90;;;;;;5023731;28;20523;-80
2023/03/11 01:35:14;;;;;;;0.63;0.50;;;3.80;99.90;;;;;;5027155;28;20461;-78
2023/03/11 01:37:43;;;;;;;0.50;0.40;;;3.70;99.90;;;;;;5025737;28;20458;-78
2023/03/11 01:40:17;;;;;;;0.50;0.50;;;3.60;99.90;;;;;;5018245;28;20474;-78
2023/03/11 01:42:43;;;;;;;0.50;0.50;;;3.50;99.90;;;;;;5033365;28;20462;-83
2023/03/11 01:45:35;;;;;;;0.50;0.47;;;3.50;99.90;;;;;;5023426;28;20486;-79
2023/03/11 01:48:02;;;;;;;0.50;0.40;;;3.50;99.90;;;;;;5024952;28;20438;-78
2023/03/11 01:50:35;;;;;;;0.47;0.37;;;3.40;99.90;;;;;;5025171;28;20483;-79
2023/03/11 01:53:02;;;;;;;1.23;0.57;;;3.40;99.90;;;;;;5024015;28;20563;-82
2023/03/11 01:55:32;;;;;;;0.50;0.30;;;3.30;99.90;;;;;;5027103;27;20490;-82
2023/03/11 01:58:00;;;;;;;0.50;0.50;;;3.40;99.90;;;;;;5021184;27;20510;-79
2023/03/11 02:00:27;;;;;;;0.63;0.50;;;3.40;99.90;;;;;;5021023;28;20458;-78
2023/03/11 02:02:58;;;;;;;0.40;0.40;;;3.40;99.90;;;;;;5020955;28;20524;-79
2023/03/11 02:05:25;;;;;;;0.50;0.50;;;3.30;99.90;;;;;;5016712;28;20490;-80
2023/03/11 02:07:54;;;;;;;0.50;0.47;;;3.30;99.90;;;;;;5012824;28;20520;-79
2023/03/11 02:10:22;;;;;;;0.50;0.40;;;3.30;99.90;;;;;;5019965;28;20489;-78
2023/03/11 02:12:51;;;;;;;0.40;0.40;;;3.20;99.90;;;;;;5016067;28;20450;-77
2023/03/11 02:15:19;;;;;;;0.80;0.60;;;3.20;99.90;;;;;;5054417;27;20513;-79
2023/03/11 02:17:46;;;;;;;1.20;1.10;;;3.20;99.90;;;;;;5023745;27;20454;-78
2023/03/11 02:20:25;;;;;;;0.90;0.40;;;3.20;99.90;;;;;;5015880;28;20470;-78
2023/03/11 02:22:55;;;;;;;0.60;0.30;;;3.10;99.90;;;;;;5015861;28;20503;-78
2023/03/11 02:25:30;;;;;;;1.93;0.50;;;3.00;99.90;;;;;;5019954;28;20538;-78
2023/03/11 02:28:00;;;;;;;0.50;0.40;;;3.00;99.90;;;;;;5019013;28;20495;-78
2023/03/11 02:30:28;;;;;;;0.40;0.37;;;3.00;99.90;;;;;;5023240;28;20499;-80
2023/03/11 02:32:56;;;;;;;0.80;0.47;;;2.90;99.90;;;;;;5016538;28;20446;-78
2023/03/11 02:35:24;;;;;;;1.23;0.40;;;2.90;99.90;;;;;;5021602;28;20466;-78
2023/03/11 02:37:53;;;;;;;0.43;0.37;;;2.80;99.90;;;;;;5015396;28;20463;-78
2023/03/11 02:40:38;;;;;;;0.67;0.67;;;2.80;99.90;;;;;;5029772;28;20512;-78
2023/03/11 02:43:10;;;;;;;0.40;0.40;;;2.80;99.90;;;;;;5018805;28;20454;-78
2023/03/11 02:45:39;;;;;;;0.47;0.30;;;2.80;99.90;;;;;;5032372;27;21020;-79
2023/03/11 02:48:10;;;;;;;0.40;0.37;;;2.80;99.70;;;;;;5032697;27;20537;-78
2023/03/11 02:50:37;;;;;;;0.50;0.40;;;2.80;99.30;;;;;;5016578;28;20998;-78
2023/03/11 02:53:05;;;;;;;0.60;0.40;;;2.70;99.30;;;;;;5019614;28;20515;-81
2023/03/11 02:55:32;;;;;;;0.40;0.30;;;2.70;99.80;;;;;;5023546;28;21116;-80
2023/03/11 02:57:59;;;;;;;0.50;0.40;;;2.60;99.90;;;;;;5023259;28;20542;-78
2023/03/11 03:00:28;;;;;;;0.50;0.30;;;2.60;99.80;;;;;;5022999;28;20960;-78
2023/03/11 03:02:55;;;;;;;0.53;0.40;;;2.50;99.90;;;;;;5021049;28;20972;-77
2023/03/11 03:05:22;;;;;;;1.07;0.40;;;2.50;99.30;;;;;;5024214;28;20477;-78
2023/03/11 03:07:50;;;;;;;0.40;0.40;;;2.50;99.90;;;;;;5027535;28;20507;-76
2023/03/11 03:10:19;;;;;;;0.53;0.50;;;2.40;99.70;;;;;;5023926;28;20534;-78
2023/03/11 03:12:46;;;;;;;0.40;0.30;;;2.40;99.80;;;;;;5026715;28;20514;-77
2023/03/11 03:15:14;;;;;;;0.40;0.20;;;2.30;99.80;;;;;;5024006;28;20478;-78
2023/03/11 03:17:43;;;;;;;0.40;0.40;;;2.30;99.70;;;;;;5021609;28;21245;-81
2023/03/11 03:20:12;;;;;;;0.50;0.40;;;2.20;99.90;;;;;;5022638;28;20462;-78
2023/03/11 03:22:39;;;;;;;0.70;0.50;;;2.20;99.90;;;;;;5019997;28;21083;-78
2023/03/11 03:25:08;;;;;;;0.60;0.40;;;2.30;99.60;;;;;;5015191;28;20463;-78
2023/03/11 03:27:35;;;;;;;0.70;0.50;;;2.40;98.60;;;;;;5022982;28;20458;-80
2023/03/11 03:30:03;;;;;;;0.67;0.40;;;2.40;99.50;;;;;;5022539;28;20447;-78
2023/03/11 03:32:30;;;;;;;0.50;0.40;;;2.50;98.20;;;;;;5023543;28;20544;-80
2023/03/11 03:34:58;;;;;;;0.50;0.40;;;2.50;99.00;;;;;;5025508;28;20458;-78
2023/03/11 03:37:27;;;;;;;0.40;0.30;;;2.50;99.00;;;;;;5013809;28;20469;-77
2023/03/11 03:39:54;;;;;;;0.50;0.40;;;2.40;99.50;;;;;;5009273;28;20503;-81
2023/03/11 03:42:23;;;;;;;0.70;0.40;;;2.40;99.10;;;;;;5019436;28;20462;-78
2023/03/11 03:44:51;;;;;;;0.40;0.30;;;2.40;99.00;;;;;;5015057;28;20492;-78
2023/03/11 03:47:18;;;;;;;0.40;0.40;;;2.50;98.00;;;;;;5025606;28;20486;-81
2023/03/11 03:49:45;;;;;;;0.40;0.30;;;2.50;98.80;;;;;;5013237;28;20485;-78
2023/03/11 03:52:13;;;;;;;0.40;0.30;;;2.40;99.30;;;;;;5026330;28;20515;-78
2023/03/11 03:54:40;;;;;;;0.43;0.30;;;2.40;98.60;;;;;;5021137;28;20522;-77
2023/03/11 03:57:07;;;;;;;0.53;0.37;;;2.30;99.10;;;;;;5023040;28;21338;-77
2023/03/11 03:59:34;;;;;;;0.43;0.30;;;2.20;99.70;;;;;;5023119;28;20875;-80
2023/03/11 04:02:01;;;;;;;0.63;0.40;;;2.10;99.30;;;;;;5020723;28;20458;-82
2023/03/11 04:04:29;;;;;;;0.50;0.40;;;2.10;99.90;;;;;;5020927;28;20443;-79
2023/03/11 04:06:56;;;;;;;0.60;0.40;;;2.00;99.60;;;;;;5012779;28;20482;-83
2023/03/11 04:09:24;;;;;;;1.10;0.70;;;2.00;99.90;;;;;;5027225;28;20450;-78
2023/03/11 04:11:51;;;;;;;0.60;0.40;;;2.00;99.90;;;;;;5022136;28;20511;-78
2023/03/11 04:14:18;;;;;;;0.50;0.33;;;1.90;99.90;;;;;;5023005;28;20467;-76
2023/03/11 04:16:45;;;;;;;1.40;0.50;;;1.90;99.90;;;;;;5021448;28;20466;-79
2023/03/11 04:19:12;;;;;;;0.40;0.30;;;2.00;99.90;;;;;;5023140;28;20458;-78
2023/03/11 04:21:39;;;;;;;0.90;0.50;;;2.00;99.90;;;;;;5021925;28;20458;-77
2023/03/11 04:24:06;;;;;;;0.50;0.40;;;2.00;99.90;;;;;;5022799;28;20458;-79
2023/03/11 04:26:35;;;;;;;0.40;0.33;;;2.10;99.90;;;;;;5021648;28;20489;-77
2023/03/11 04:29:02;;;;;;;0.50;0.40;;;2.00;99.90;;;;;;5022830;28;20507;-77
2023/03/11 04:31:29;;;;;;;0.60;0.40;;;2.00;99.90;;;;;;5017989;28;20499;-78
2023/03/11 04:33:56;;;;;;;3.17;0.40;;;2.00;99.90;;;;;;5026709;28;20514;-78
2023/03/11 04:36:23;;;;;;;0.70;0.50;;;2.00;99.90;;;;;;5029816;28;20457;-78
2023/03/11 04:38:50;;;;;;;0.80;0.50;;;2.00;99.90;;;;;;5024269;28;20470;-78
2023/03/11 04:41:17;;;;;;;0.40;0.40;;;2.00;99.90;;;;;;5028533;28;20462;-80
2023/03/11 04:43:45;;;;;;;1.00;0.50;;;2.10;99.90;;;;;;5023472;28;20753;-76
2023/03/11 04:46:12;;;;;;;1.07;0.50;;;2.20;99.90;;;;;;5032535;27;20528;-78
2023/03/11 04:48:39;;;;;;;0.70;0.50;;;2.20;99.90;;;;;;5025232;28;20950;-77
2023/03/11 04:51:06;;;;;;;0.87;0.70;;;2.20;99.90;;;;;;5024922;28;20454;-81
2023/03/11 04:53:33;;;;;;;1.27;0.60;;;2.20;99.90;;;;;;5025989;28;20446;-83
2023/03/11 04:56:00;;;;;;;0.50;0.50;;;2.20;99.90;;;;;;5023991;28;20546;-77
2023/03/11 04:58:27;;;;;;;0.60;0.57;;;2.20;99.90;;;;;;5030202;28;20510;-81
2023/03/11 05:00:56;;;;;;;0.47;0.40;;;2.20;99.90;;;;;;5024738;28;20535;-78
2023/03/11 05:03:23;;;;;;;1.00;0.60;;;2.10;99.90;;;;;;5025686;28;20454;-77
2023/03/11 05:05:51;;;;;;;0.60;0.40;;;2.10;99.90;;;;;;5020972;28;20906;-77
2023/03/11 05:08:19;;;;;;;0.63;0.40;;;2.10;99.90;;;;;;5022507;28;20459;-80
2023/03/11 05:10:46;;;;;;;0.77;0.60;;;1.90;99.90;;;;;;5021951;28;20462;-79
2023/03/11 05:13:13;;;;;;;1.17;0.60;;;1.90;99.90;;;;;;5018082;28;21026;-77
2023/03/11 05:15:41;;;;;;;1.13;0.70;;;1.90;99.90;;;;;;5023096;28;20942;-78
2023/03/11 05:18:09;;;;;;;0.70;0.57;;;1.90;99.90;;;;;;5018532;28;20507;-78
2023/03/11 05:20:36;;;;;;;0.53;0.50;;;2.00;99.90;;;;;;5020397;28;21046;-78
2023/03/11 05:23:04;;;;;;;1.63;0.50;;;2.00;99.90;;;;;;5017555;28;20442;-78
2023/03/11 05:25:31;;;;;;;0.57;0.57;;;2.00;99.90;;;;;;5015416;28;20969;-77
2023/03/11 05:27:58;;;;;;;0.70;0.60;;;2.00;99.90;;;;;;5018352;28;22003;-78
2023/03/11 05:30:25;;;;;;;0.57;0.40;;;2.10;99.90;;;;;;5021629;28;20950;-77
2023/03/11 05:32:52;;;;;;;0.53;0.43;;;2.00;99.90;;;;;;5016179;28;20450;-77
2023/03/11 05:35:20;;;;;;;1.43;1.10;;;2.10;99.90;;;;;;5021574;28;20508;-77
2023/03/11 05:37:48;;;;;;;0.50;0.50;;;2.10;99.90;;;;;;5020524;28;20466;-79
2023/03/11 05:40:18;;;;;;;0.70;0.50;;;2.10;99.90;;;;;;5018405;28;20464;-77
2023/03/11 05:42:45;;;;;;;0.60;0.53;;;2.10;99.90;;;;;;5034791;27;20458;-77
2023/03/11 05:45:13;;;;;;;0.70;0.47;;;2.10;99.90;;;;;;5021995;28;20470;-77
2023/03/11 05:47:41;;;;;;;0.63;0.60;;;2.20;99.90;;;;;;5027005;27;20890;-77
2023/03/11 05:50:09;;;;;;;0.60;0.53;;;2.20;99.90;;;;;;5026156;28;20465;-77
2023/03/11 05:52:38;;;;;;;0.60;0.60;;;2.20;99.90;;;;;;5023216;28;20937;-78
2023/03/11 05:55:06;;;;;;;2.53;0.67;;;2.30;99.90;;;;;;5023798;28;20478;-77
2023/03/11 05:57:32;;;;;;;1.63;0.50;;;2.30;99.90;;;;;;5020391;28;20471;-77
2023/03/11 05:59:59;;;;;;;0.47;0.47;;;2.30;99.90;;;;;;5024362;28;20450;-77
2023/03/11 06:02:26;;;;;;;0.60;0.60;;;2.30;99.90;;;;;;5026332;28;20470;-77
2023/03/11 06:04:53;;;;;;;1.03;0.60;;;2.30;99.90;;;;;;5024169;28;20514;-76
2023/03/11 06:07:20;;;;;;;0.70;0.70;;;2.30;99.90;;;;;;5033471;28;20840;-76
2023/03/11 06:09:50;;;;;;;0.50;0.50;;;2.30;99.90;;;;;;5025731;28;20480;-77
2023/03/11 06:12:17;;;;;;;4.50;1.73;;;2.30;99.90;;;;;;5026680;28;20523;-76
2023/03/11 06:14:44;;;;;;;2.00;1.20;;;2.30;99.70;;;;;;5020905;28;21265;-78
2023/03/11 06:17:11;;;;;;;4.20;1.43;;;2.30;99.90;;;;;;5024418;28;20549;-79
2023/03/11 06:19:38;;;;;;;1.83;1.10;;;2.30;99.90;;;;;;5026806;28;20458;-80
2023/03/11 06:22:05;;;;;;;1.10;0.87;;;2.30;99.90;;;;;;5024228;28;20458;-76
2023/03/11 06:24:34;;;;;;;1.30;0.87;;;2.30;99.90;;;;;;5024489;28;20457;-75
2023/03/11 06:27:03;;;;;;;0.70;0.60;;;2.30;99.90;;;;;;5024494;28;20907;-75
2023/03/11 06:29:30;;;;;;;0.70;0.70;;;2.30;99.90;;;;;;5031012;28;20513;-80
2023/03/11 06:31:57;;;;;;;1.33;1.23;;;2.20;99.90;;;;;;5033618;27;20461;-80
2023/03/11 06:34:24;;;;;;;3.67;1.50;;;2.20;99.90;;;;;;5059022;28;20839;-78
2023/03/11 06:36:51;;;;;;;1.00;0.80;;;2.20;99.90;;;;;;5022359;28;21231;-76
2023/03/11 06:39:18;;;;;;;1.70;0.83;;;2.20;99.90;;;;;;5022634;28;21060;-76
2023/03/11 06:41:45;;;;;;;1.10;0.80;;;2.20;99.90;;;;;;5023814;28;20458;-78
2023/03/11 06:44:13;;;;;;;1.37;0.93;;;2.20;99.90;;;;;;5025596;28;20461;-79
2023/03/11 06:46:40;;;;;;;1.00;0.60;;;2.30;99.90;;;;;;5034938;27;20485;-77
2023/03/11 06:49:07;;;;;;;0.97;0.70;;;2.40;99.80;;;;;;5022638;28;20511;-81
2023/03/11 06:51:34;;;;;;;0.77;0.60;;;2.40;99.50;;;;;;5020492;28;20535;-81
2023/03/11 06:54:02;;;;;;;1.07;0.80;;;2.40;99.90;;;;;;5024974;28;20462;-78
2023/03/11 06:56:28;;;;;;;0.50;0.50;;;2.40;99.90;;;;;;5023619;28;20490;-77
2023/03/11 06:58:55;;;;;;;0.90;0.60;;;2.40;99.90;;;;;;5023241;28;20507;-80
2023/03/11 07:01:26;;;;;;;0.70;0.50;;;2.40;99.60;;;;;;5051392;28;20450;-77
2023/03/11 07:03:53;;;;;;;0.50;0.50;;;2.40;99.90;;;;;;5023459;28;21013;-79
2023/03/11 07:06:22;;;;;;;0.50;0.50;;;2.60;99.70;;;;;;5036825;28;20457;-76
2023/03/11 07:08:51;;;;;;;1.63;0.90;;;2.60;99.30;;;;;;5023734;28;20512;-79
2023/03/11 07:11:21;;;;;;;1.97;0.93;;;2.60;98.30;;;;;;5023051;28;20462;-78
2023/03/11 07:13:48;;;;;;;1.03;0.73;;;2.60;97.70;;;;;;5022315;28;20829;-75
2023/03/11 07:16:16;;;;;;;2.40;0.80;;;2.80;97.90;;;;;;5014626;28;20993;-79
2023/03/11 07:18:46;;;;;;;1.40;1.40;;;3.00;98.00;;;;;;5017937;28;20514;-80
2023/03/11 07:21:15;;;;;;;1.17;1.07;;;3.20;97.30;;;;;;5022528;28;20557;-77
2023/03/11 07:23:43;;;;;;;0.50;0.50;;;3.20;96.90;;;;;;5019308;28;21006;-78
2023/03/11 07:26:13;;;;;;;0.67;0.60;;;3.20;96.30;;;;;;5019932;28;20462;-78
2023/03/11 07:28:41;;;;;;;0.60;0.60;;;3.10;96.20;;;;;;5020758;28;20488;-78
2023/03/11 07:31:08;;;;;;;1.70;1.03;;;3.00;95.60;;;;;;5018565;28;20849;-87
2023/03/11 07:33:37;;;;;;;0.67;0.60;;;2.90;95.40;;;;;;5028416;28;20506;-78
2023/03/11 07:36:10;;;;;;;1.90;0.50;;;2.90;94.90;;;;;;5017850;28;20859;-78
2023/03/11 07:38:37;;;;;;;0.50;0.50;;;2.90;94.60;;;;;;5015473;28;20466;-77
2023/03/11 07:41:05;;;;;;;0.50;0.50;;;3.10;93.40;;;;;;5020278;28;20886;-78
2023/03/11 07:43:33;;;;;;;0.50;0.40;;;3.30;93.60;;;;;;5017597;28;20524;-80
2023/03/11 07:46:06;;;;;;;0.50;0.50;;;3.20;92.70;;;;;;5036423;28;20461;-82
2023/03/11 07:48:33;;;;;;;0.50;0.43;;;3.20;92.10;;;;;;5037275;27;20550;-77
2023/03/11 07:51:01;;;;;;;0.60;0.60;;;3.10;92.80;;;;;;5017701;28;20543;-77
2023/03/11 07:53:30;;;;;;;1.10;0.90;;;3.10;93.10;;;;;;5013282;28;20511;-79
2023/03/11 07:55:57;;;;;;;1.07;0.63;;;3.20;92.80;;;;;;5021376;28;20481;-78
2023/03/11 07:58:24;;;;;;;0.57;0.57;;;3.40;92.30;;;;;;5011775;28;20950;-78
2023/03/11 08:00:53;;;;;;;0.60;0.60;;;3.30;91.60;;;;;;5023001;28;20474;-78
2023/03/11 08:03:20;;;;;;;0.70;0.70;;;3.10;93.20;;;;;;5019131;28;20952;-82
2023/03/11 08:05:47;;;;;;;1.27;0.60;;;3.00;93.30;;;;;;5023303;28;20454;-77
2023/03/11 08:08:15;;;;;;;0.50;0.40;;;2.90;92.90;;;;;;5023538;28;20485;-77
2023/03/11 08:10:43;;;;;;;0.70;0.70;;;3.20;92.30;;;;;;5023968;28;21022;-81
2023/03/11 08:13:10;;;;;;;0.40;0.40;;;3.10;93.90;;;;;;5025211;28;20950;-77
2023/03/11 08:15:37;;;;;;;0.50;0.50;;;3.30;92.40;;;;;;5018847;28;20466;-77
2023/03/11 08:18:05;;;;;;;0.50;0.43;;;3.30;91.80;;;;;;5018685;28;20473;-76
2023/03/11 08:20:32;;;;;;;0.50;0.40;;;3.10;92.10;;;;;;5023557;28;20452;-75
2023/03/11 08:22:59;;;;;;;0.50;0.50;;;3.10;92.30;;;;;;5023275;28;20502;-76
2023/03/11 08:25:26;;;;;;;2.63;0.50;;;3.10;91.10;;;;;;5016994;28;20974;-76
2023/03/11 08:27:55;;;;;;;0.73;0.40;;;3.10;91.10;;;;;;5020429;28;20915;-76
2023/03/11 08:30:22;;;;;;;0.70;0.50;;;3.00;90.50;;;;;;5008288;28;20451;-75
2023/03/11 08:32:50;;;;;;;0.50;0.40;;;3.00;91.40;;;;;;5022129;28;20957;-77
2023/03/11 08:35:17;;;;;;;0.60;0.60;;;3.30;91.20;;;;;;5024451;28;20454;-77
2023/03/11 08:37:44;;;;;;;0.50;0.50;;;3.40;89.10;;;;;;5018047;28;20520;-76
2023/03/11 08:40:13;;;;;;;0.60;0.60;;;3.20;87.70;;;;;;5021384;28;20457;-76
2023/03/11 08:42:40;;;;;;;3.50;0.50;;;3.30;90.70;;;;;;5013664;28;20458;-76
2023/03/11 08:45:10;;;;;;;3.13;0.60;;;3.70;90.00;;;;;;5033660;28;21971;-77
2023/03/11 08:47:38;;;;;;;0.40;0.37;;;3.70;87.10;;;;;;5076652;27;20973;-77
2023/03/11 08:50:06;;;;;;;0.50;0.47;;;3.60;89.40;;;;;;5018316;28;20610;-76
2023/03/11 08:52:33;;;;;;;0.40;0.30;;;3.80;90.10;;;;;;5021645;28;20445;-76
2023/03/11 08:55:00;;;;;;;0.50;0.40;;;3.90;87.40;;;;;;5022862;28;21062;-76
2023/03/11 08:57:27;;;;;;;0.50;0.43;;;3.60;86.80;;;;;;5021249;28;20496;-76
2023/03/11 08:59:54;;;;;;;0.90;0.53;;;3.70;91.00;;;;;;5026463;28;20503;-76
2023/03/11 09:02:22;;;;;;;0.40;0.30;;;3.70;84.10;;;;;;5035293;28;20946;-77
2023/03/11 09:04:49;;;;;;;0.50;0.40;;;3.80;88.00;;;;;;5026257;28;20937;-75
2023/03/11 09:07:16;;;;;;;0.50;0.30;;;3.70;86.50;;;;;;5022896;28;21000;-77
2023/03/11 09:09:43;;;;;;;0.40;0.33;;;3.60;88.30;;;;;;5025172;28;20454;-77
2023/03/11 09:12:12;;;;;;;0.70;0.57;;;3.70;89.50;;;;;;5026719;28;20450;-75
2023/03/11 09:14:40;;;;;;;0.50;0.40;;;3.50;88.10;;;;;;5020707;28;20482;-76
2023/03/11 09:17:07;;;;;;;0.43;0.33;;;3.40;88.60;;;;;;5012739;28;20523;-77
2023/03/11 09:19:36;;;;;;;0.50;0.37;;;3.40;89.90;;;;;;5027541;28;20530;-78
2023/03/11 09:22:04;;;;;;;0.43;0.30;;;3.50;91.10;;;;;;5024615;28;20484;-77
2023/03/11 09:24:33;;;;;;;0.40;0.30;;;3.40;92.80;;;;;;5024729;28;20520;-76
2023/03/11 09:27:00;;;;;;;0.60;0.40;;;3.70;93.40;;;;;;5024344;28;20447;-76
2023/03/11 09:29:27;;;;;;;0.40;0.30;;;3.60;92.70;;;;;;5020935;28;20965;-77
2023/03/11 09:31:54;;;;;;;0.53;0.30;;;3.70;94.10;;;;;;5025127;28;20454;-76
2023/03/11 09:34:21;;;;;;;0.50;0.50;;;3.90;94.40;;;;;;5030074;28;21058;-76
2023/03/11 09:36:49;;;;;;;0.70;0.40;;;3.90;94.60;;;;;;5021114;28;20514;-76
2023/03/11 09:39:16;;;;;;;0.40;0.30;;;3.70;93.80;;;;;;5023743;28;20474;-77
2023/03/11 09:41:51;;;;;;;0.60;0.40;;;3.50;94.90;;;;;;5022011;28;20446;-76
2023/03/11 09:44:24;;;;;;;0.50;0.40;;;3.30;94.00;;;;;;5017617;28;20462;-76
2023/03/11 09:47:04;;;;;;;0.50;0.40;;;3.30;93.90;;;;;;5016083;27;20462;-76
2023/03/11 09:50:04;;;;;;;0.60;0.50;;;3.10;92.90;;;;;;5020641;28;20454;-77
2023/03/11 09:52:40;;;;;;;0.50;0.40;;;3.30;93.50;;;;;;5019215;28;20455;-77
2023/03/11 09:55:27;;;;;;;2.60;1.30;;;3.50;92.90;;;;;;5023646;28;20485;-77
2023/03/11 09:57:54;;;;;;;0.60;0.50;;;3.30;93.20;;;;;;5035544;28;20533;-77
2023/03/11 10:00:23;;;;;;;0.70;0.50;;;3.20;93.50;;;;;;5024232;28;20503;-77
2023/03/11 10:02:51;;;;;;;0.50;0.40;;;3.30;93.50;;;;;;5034390;28;20534;-76
2023/03/11 10:05:23;;;;;;;0.60;0.40;;;3.30;93.60;;;;;;5024816;28;20853;-77
2023/03/11 10:07:57;;;;;;;1.23;0.50;;;3.20;94.60;;;;;;5023523;28;21029;-78
2023/03/11 10:10:26;;;;;;;0.50;0.50;;;3.30;93.40;;;;;;5024477;28;20510;-77
2023/03/11 10:13:04;;;;;;;1.07;0.70;;;3.40;94.90;;;;;;5024875;28;20485;-76
2023/03/11 10:15:40;;;;;;;0.50;0.50;;;3.10;92.60;;;;;;5020972;28;20466;-77
2023/03/11 10:18:29;;;;;;;0.90;0.50;;;3.10;93.60;;;;;;5022429;28;21109;-77
2023/03/11 10:21:00;;;;;;;0.50;0.47;;;3.20;94.50;;;;;;5022044;28;20509;-76
2023/03/11 10:23:36;;;;;;;0.50;0.40;;;3.40;93.90;;;;;;5012889;28;20458;-76
2023/03/11 10:26:11;;;;;;;0.50;0.40;;;3.40;93.50;;;;;;5034247;28;20445;-76
2023/03/11 10:28:42;;;;;;;0.50;0.40;;;3.70;92.50;;;;;;5022497;28;20513;-77
2023/03/11 10:31:20;;;;;;;0.47;0.40;;;3.90;92.40;;;;;;5025235;28;20442;-77
2023/03/11 10:33:52;;;;;;;0.40;0.40;;;4.00;93.20;;;;;;5017811;28;20566;-76
2023/03/11 10:36:23;;;;;;;0.50;0.50;;;4.00;91.50;;;;;;5024630;28;20530;-76
2023/03/11 10:38:53;;;;;;;1.97;0.70;;;3.90;92.60;;;;;;5024488;28;20453;-76
2023/03/11 10:41:24;;;;;;;0.50;0.40;;;4.20;91.90;;;;;;5015102;28;20512;-76
2023/03/11 10:43:57;;;;;;;0.80;0.80;;;4.50;93.50;;;;;;5015622;28;20456;-76
2023/03/11 10:46:27;;;;;;;1.10;1.00;;;4.60;91.70;;;;;;5027625;28;20663;-76
2023/03/11 10:48:54;;;;;;;0.90;0.50;;;4.50;92.00;;;;;;5023232;28;20486;-76
2023/03/11 10:51:22;;;;;;;0.70;0.50;;;4.30;90.60;;;;;;5022384;28;20617;-75
2023/03/11 10:53:52;;;;;;;1.17;0.60;;;4.40;92.80;;;;;;5026818;28;21217;-76
2023/03/11 10:56:26;;;;;;;1.17;0.40;;;4.90;92.00;;;;;;5024373;28;20527;-76
2023/03/11 10:58:53;;;;;;;0.90;0.50;;;4.90;91.80;;;;;;5018639;28;20519;-73
2023/03/11 11:01:20;;;;;;;0.63;0.50;;;5.10;91.40;;;;;;5033566;28;20534;-74
2023/03/11 11:03:49;;;;;;;0.40;0.37;;;5.10;91.50;;;;;;5024503;28;20926;-76
2023/03/11 11:06:24;;;;;;;0.63;0.50;;;4.50;87.30;;;;;;5021867;28;20878;-76
2023/03/11 11:09:06;;;;;;;0.50;0.40;;;4.50;90.70;;;;;;5015862;28;20492;-73
2023/03/11 11:11:34;;;;;;;1.27;0.67;;;4.70;89.10;;;;;;5022155;27;20518;-76
2023/03/11 11:14:01;;;;;;;0.50;0.40;;;4.30;82.20;;;;;;5017227;28;20550;-77
2023/03/11 11:16:29;;;;;;;0.73;0.50;;;4.30;85.50;;;;;;5024932;27;20463;-76
2023/03/11 11:19:02;;;;;;;1.27;0.63;;;4.20;83.80;;;;;;5021509;28;20562;-76
2023/03/11 11:21:32;;;;;;;0.50;0.30;;;4.30;87.80;;;;;;5015275;28;20467;-75
2023/03/11 11:27:13;;;;;;;0.47;0.40;;;4.40;82.50;;;;;;5098349;28;21026;-73
2023/03/11 11:29:40;;;;;;;0.50;0.40;;;4.50;85.80;;;;;;5096079;28;20741;-75
2023/03/11 11:32:25;;;;;;;0.47;0.30;;;4.40;84.00;;;;;;5096375;28;20494;-75
2023/03/11 11:34:59;;;;;;;0.40;0.30;;;4.60;85.00;;;;;;5100741;28;21066;-73
2023/03/11 11:37:30;;;;;;;0.80;0.40;;;4.70;85.20;;;;;;5085890;28;20454;-73
2023/03/11 11:40:08;;;;;;;0.50;0.40;;;4.70;83.10;;;;;;5090882;28;20463;-73
2023/03/11 11:42:37;;;;;;;0.70;0.40;;;4.70;84.10;;;;;;5099391;28;21002;-73
2023/03/11 11:45:13;;;;;;;1.43;0.40;;;4.80;84.80;;;;;;5106156;28;21045;-74
2023/03/11 11:47:44;;;;;;;0.60;0.50;;;4.80;82.80;;;;;;5100652;28;20434;-74
2023/03/11 11:50:17;;;;;;;0.40;0.40;;;4.60;82.90;;;;;;5100575;28;20504;-74
2023/03/11 11:52:47;;;;;;;1.93;0.50;;;4.50;84.70;;;;;;5102197;28;20458;-74
2023/03/11 11:55:20;;;;;;;0.60;0.40;;;4.40;86.00;;;;;;5104755;28;20466;-75
2023/03/11 11:57:50;;;;;;;0.60;0.47;;;4.30;87.50;;;;;;5099332;28;20571;-75
2023/03/11 12:00:23;;;;;;;0.80;0.60;;;4.20;91.10;;;;;;5103947;28;20474;-75
2023/03/11 12:03:09;;;;;;;0.60;0.43;;;4.20;92.80;;;;;;5102767;28;21029;-75
2023/03/11 12:05:43;;;;;;;0.70;0.43;;;4.10;92.20;;;;;;5104282;28;20870;-75
2023/03/11 12:08:17;;;;;;;0.90;0.50;;;4.20;92.40;;;;;;5105220;28;20534;-75
2023/03/11 12:10:49;;;;;;;1.73;0.60;;;4.30;91.00;;;;;;5103051;28;20591;-74
2023/03/11 12:13:46;;;;;;;0.60;0.50;;;4.40;91.80;;;;;;5104408;28;20935;-75
2023/03/11 12:16:28;;;;;;;0.60;0.50;;;4.40;90.90;;;;;;5100696;28;20519;-76
2023/03/11 12:18:59;;;;;;;1.03;0.50;;;4.20;90.80;;;;;;5098793;28;21004;-76
2023/03/11 12:21:38;;;;;;;0.90;0.50;;;4.10;91.00;;;;;;5097115;28;20466;-76
2023/03/11 12:24:21;;;;;;;0.80;0.60;;;4.20;91.00;;;;;;5101286;28;20514;-76
2023/03/11 12:26:50;;;;;;;2.90;0.70;;;4.40;93.50;;;;;;5094223;28;20466;-75
2023/03/11 12:29:26;;;;;;;0.60;0.50;;;4.50;92.50;;;;;;5100675;28;21073;-75
2023/03/11 12:31:55;;;;;;;0.83;0.60;;;4.60;92.00;;;;;;5096330;28;20470;-76
2023/03/11 12:34:24;;;;;;;1.63;0.97;;;4.70;93.50;;;;;;5088192;28;20499;-75
2023/03/11 12:36:52;;;;;;;0.40;0.30;;;4.80;91.20;;;;;;5095176;28;20453;-75
2023/03/11 12:39:27;;;;;;;0.60;0.40;;;4.80;82.00;;;;;;5094998;28;20534;-75
2023/03/11 12:42:16;;;;;;;1.53;0.63;;;4.90;86.00;;;;;;5094830;28;20447;-75
2023/03/11 12:44:45;;;;;;;1.53;0.70;;;5.10;92.00;;;;;;5098453;28;20618;-75
2023/03/11 12:47:30;;;;;;;0.50;0.50;;;4.20;92.80;;;;;;5098425;28;20454;-75
2023/03/11 12:50:30;;;;;;;1.00;0.70;;;4.00;94.20;;;;;;5100952;28;20478;-76
2023/03/11 12:52:56;;;;;;;0.53;0.53;;;4.20;94.10;;;;;;5088723;28;20939;-75
2023/03/11 12:55:31;;;;;;;1.07;0.80;;;4.00;94.20;;;;;;5094382;28;20507;-75
2023/03/11 12:58:07;;;;;;;0.80;0.67;;;4.00;94.00;;;;;;5103826;28;20457;-75
2023/03/11 13:00:53;;;;;;;0.50;0.50;;;3.80;93.80;;;;;;5100233;28;20504;-75
2023/03/11 13:03:44;;;;;;;0.60;0.50;;;3.90;94.70;;;;;;5097036;28;20462;-75
2023/03/11 13:06:28;;;;;;;0.70;0.50;;;4.00;94.50;;;;;;5093976;28;20451;-75
2023/03/11 13:08:57;;;;;;;0.80;0.50;;;4.10;93.80;;;;;;5096474;28;20896;-75
2023/03/11 13:11:37;;;;;;;0.60;0.57;;;4.10;93.90;;;;;;5103841;28;20482;-75
2023/03/11 13:14:28;;;;;;;1.37;0.60;;;4.20;94.20;;;;;;5100669;28;20519;-77